sensor_id;sensor_type;location;lat;lon;timestamp;P1;durP1;ratioP1;P2;durP2;ratioP2
48375;SDS011;34178;50.904;11.560;2023-06-26T06:56:48;13.77;;;9.70;;
48375;SDS011;34178;50.904;11.560;2023-06-26T06:59:14;17.50;;;10.60;;
48375;SDS011;34178;50.904;11.560;2023-06-26T07:01:40;15.23;;;10.30;;
48375;SDS011;34178;50.904;11.560;2023-06-26T07:04:05;16.38;;;10.85;;
48375;SDS011;34178;50.904;11.560;2023-06-26T07:06:31;16.65;;;10.60;;
48375;SDS011;34178;50.904;11.560;2023-06-26T09:24:15;10.00;;;6.13;;
48375;SDS011;34178;50.904;11.560;2023-06-26T09:54:41;7.50;;;5.35;;
48375;SDS011;34178;50.904;11.560;2023-06-26T09:57:10;7.18;;;5.13;;
48375;SDS011;34178;50.904;11.560;2023-06-26T10:09:53;7.13;;;5.15;;
48375;SDS011;34178;50.904;11.560;2023-06-26T10:12:28;8.00;;;5.53;;
48375;SDS011;34178;50.904;11.560;2023-06-26T10:14:58;6.57;;;4.95;;
48375;SDS011;34178;50.904;11.560;2023-06-26T10:17:28;7.95;;;5.47;;
48375;SDS011;34178;50.904;11.560;2023-06-26T10:22:24;8.38;;;5.85;;
48375;SDS011;34178;50.904;11.560;2023-06-26T10:24:54;8.60;;;5.25;;
48375;SDS011;34178;50.904;11.560;2023-06-26T10:27:24;7.25;;;4.95;;
48375;SDS011;34178;50.904;11.560;2023-06-26T10:29:55;8.18;;;5.60;;
48375;SDS011;34178;50.904;11.560;2023-06-26T10:32:24;7.43;;;5.63;;
48375;SDS011;34178;50.904;11.560;2023-06-26T10:34:51;7.63;;;5.50;;
48375;SDS011;34178;50.904;11.560;2023-06-26T10:37:17;7.60;;;5.43;;
48375;SDS011;34178;50.904;11.560;2023-06-26T10:39:50;9.32;;;5.18;;
48375;SDS011;34178;50.904;11.560;2023-06-26T10:42:34;7.82;;;5.60;;
48375;SDS011;34178;50.904;11.560;2023-06-26T10:45:10;7.22;;;5.45;;
48375;SDS011;34178;50.904;11.560;2023-06-26T10:47:40;7.53;;;5.75;;
48375;SDS011;34178;50.904;11.560;2023-06-26T11:04:00;7.78;;;5.80;;
48375;SDS011;34178;50.904;11.560;2023-06-26T11:06:33;7.30;;;5.63;;
48375;SDS011;34178;50.904;11.560;2023-06-26T11:09:01;8.63;;;5.68;;
48375;SDS011;34178;50.904;11.560;2023-06-26T11:14:17;8.00;;;5.72;;
48375;SDS011;34178;50.904;11.560;2023-06-26T11:16:44;8.35;;;5.38;;
48375;SDS011;34178;50.904;11.560;2023-06-26T11:19:10;11.38;;;5.70;;
48375;SDS011;34178;50.904;11.560;2023-06-26T11:21:39;7.60;;;5.32;;
48375;SDS011;34178;50.904;11.560;2023-06-26T11:24:05;8.65;;;5.50;;
48375;SDS011;34178;50.904;11.560;2023-06-26T11:26:37;7.00;;;5.13;;
48375;SDS011;34178;50.904;11.560;2023-06-26T11:29:07;8.05;;;5.22;;
48375;SDS011;34178;50.904;11.560;2023-06-26T11:31:34;8.55;;;5.47;;
48375;SDS011;34178;50.904;11.560;2023-06-26T11:34:03;7.55;;;5.93;;
48375;SDS011;34178;50.904;11.560;2023-06-26T11:36:30;7.97;;;5.10;;
48375;SDS011;34178;50.904;11.560;2023-06-26T11:38:57;8.68;;;5.57;;
48375;SDS011;34178;50.904;11.560;2023-06-26T11:41:24;7.93;;;5.80;;
48375;SDS011;34178;50.904;11.560;2023-06-26T11:43:51;10.18;;;6.47;;
48375;SDS011;34178;50.904;11.560;2023-06-26T11:46:19;8.82;;;5.57;;
48375;SDS011;34178;50.904;11.560;2023-06-26T11:48:45;8.70;;;5.75;;
48375;SDS011;34178;50.904;11.560;2023-06-26T11:51:12;7.75;;;5.40;;
48375;SDS011;34178;50.904;11.560;2023-06-26T11:53:40;8.75;;;5.80;;
48375;SDS011;34178;50.904;11.560;2023-06-26T11:56:07;9.50;;;6.00;;
48375;SDS011;34178;50.904;11.560;2023-06-26T11:58:54;8.18;;;5.35;;
48375;SDS011;34178;50.904;11.560;2023-06-26T12:01:40;7.35;;;5.60;;
48375;SDS011;34178;50.904;11.560;2023-06-26T12:04:08;8.35;;;5.40;;
48375;SDS011;34178;50.904;11.560;2023-06-26T12:06:35;7.55;;;5.88;;
48375;SDS011;34178;50.904;11.560;2023-06-26T12:09:04;7.97;;;6.25;;
48375;SDS011;34178;50.904;11.560;2023-06-26T12:11:34;7.45;;;5.60;;
48375;SDS011;34178;50.904;11.560;2023-06-26T12:14:01;8.27;;;5.60;;
48375;SDS011;34178;50.904;11.560;2023-06-26T12:16:29;6.65;;;5.43;;
48375;SDS011;34178;50.904;11.560;2023-06-26T12:19:02;10.07;;;5.90;;
48375;SDS011;34178;50.904;11.560;2023-06-26T12:24:12;7.80;;;5.35;;
48375;SDS011;34178;50.904;11.560;2023-06-26T12:26:44;8.20;;;5.57;;
48375;SDS011;34178;50.904;11.560;2023-06-26T12:29:11;7.28;;;5.35;;
48375;SDS011;34178;50.904;11.560;2023-06-26T12:31:42;7.40;;;5.78;;
48375;SDS011;34178;50.904;11.560;2023-06-26T12:34:09;7.35;;;5.68;;
48375;SDS011;34178;50.904;11.560;2023-06-26T12:36:44;7.50;;;5.78;;
48375;SDS011;34178;50.904;11.560;2023-06-26T12:39:12;9.18;;;5.85;;
48375;SDS011;34178;50.904;11.560;2023-06-26T12:41:54;7.32;;;5.60;;
48375;SDS011;34178;50.904;11.560;2023-06-26T12:44:23;8.82;;;5.70;;
48375;SDS011;34178;50.904;11.560;2023-06-26T12:46:58;9.82;;;5.97;;
48375;SDS011;34178;50.904;11.560;2023-06-26T12:49:32;7.63;;;5.60;;
48375;SDS011;34178;50.904;11.560;2023-06-26T12:52:00;10.27;;;6.03;;
48375;SDS011;34178;50.904;11.560;2023-06-26T12:54:28;6.25;;;5.07;;
48375;SDS011;34178;50.904;11.560;2023-06-26T12:56:54;7.20;;;5.35;;
48375;SDS011;34178;50.904;11.560;2023-06-26T12:59:20;8.73;;;5.45;;
48375;SDS011;34178;50.904;11.560;2023-06-26T13:01:46;7.75;;;5.50;;
48375;SDS011;34178;50.904;11.560;2023-06-26T13:04:12;8.70;;;5.00;;
48375;SDS011;34178;50.904;11.560;2023-06-26T13:06:38;6.68;;;5.32;;
48375;SDS011;34178;50.904;11.560;2023-06-26T13:09:04;7.00;;;5.53;;
48375;SDS011;34178;50.904;11.560;2023-06-26T13:11:30;8.43;;;5.72;;
48375;SDS011;34178;50.904;11.560;2023-06-26T13:13:56;11.80;;;5.28;;
48375;SDS011;34178;50.904;11.560;2023-06-26T13:16:22;7.82;;;5.55;;
48375;SDS011;34178;50.904;11.560;2023-06-26T13:18:48;6.97;;;5.78;;
48375;SDS011;34178;50.904;11.560;2023-06-26T13:21:13;7.15;;;5.40;;
48375;SDS011;34178;50.904;11.560;2023-06-26T13:23:39;9.48;;;6.13;;
48375;SDS011;34178;50.904;11.560;2023-06-26T13:26:05;8.18;;;6.20;;
48375;SDS011;34178;50.904;11.560;2023-06-26T13:28:31;9.05;;;6.30;;
48375;SDS011;34178;50.904;11.560;2023-06-26T13:30:57;8.90;;;5.65;;
48375;SDS011;34178;50.904;11.560;2023-06-26T13:33:23;11.07;;;6.10;;
48375;SDS011;34178;50.904;11.560;2023-06-26T13:35:52;10.10;;;6.72;;
48375;SDS011;34178;50.904;11.560;2023-06-26T13:38:19;14.95;;;7.13;;
48375;SDS011;34178;50.904;11.560;2023-06-26T13:40:49;12.73;;;6.00;;
48375;SDS011;34178;50.904;11.560;2023-06-26T13:43:20;12.82;;;6.15;;
48375;SDS011;34178;50.904;11.560;2023-06-26T13:45:46;15.70;;;7.43;;
48375;SDS011;34178;50.904;11.560;2023-06-26T13:48:12;16.25;;;7.60;;
48375;SDS011;34178;50.904;11.560;2023-06-26T13:50:38;10.95;;;6.57;;
48375;SDS011;34178;50.904;11.560;2023-06-26T13:53:04;17.65;;;8.60;;
48375;SDS011;34178;50.904;11.560;2023-06-26T13:55:30;16.27;;;7.65;;
48375;SDS011;34178;50.904;11.560;2023-06-26T13:57:56;15.63;;;7.80;;
48375;SDS011;34178;50.904;11.560;2023-06-26T14:00:22;12.88;;;7.28;;
48375;SDS011;34178;50.904;11.560;2023-06-26T14:02:48;12.73;;;7.60;;
48375;SDS011;34178;50.904;11.560;2023-06-26T14:05:14;11.98;;;6.93;;
48375;SDS011;34178;50.904;11.560;2023-06-26T14:07:39;10.82;;;7.07;;
48375;SDS011;34178;50.904;11.560;2023-06-26T14:10:05;20.15;;;7.90;;
48375;SDS011;34178;50.904;11.560;2023-06-26T14:12:32;12.10;;;7.82;;
48375;SDS011;34178;50.904;11.560;2023-06-26T14:14:58;14.60;;;7.95;;
48375;SDS011;34178;50.904;11.560;2023-06-26T14:17:24;18.15;;;8.38;;
48375;SDS011;34178;50.904;11.560;2023-06-26T14:19:53;12.15;;;7.32;;
48375;SDS011;34178;50.904;11.560;2023-06-26T14:22:19;14.95;;;7.50;;
48375;SDS011;34178;50.904;11.560;2023-06-26T14:24:45;12.13;;;6.95;;
48375;SDS011;34178;50.904;11.560;2023-06-26T14:27:11;13.23;;;6.82;;
48375;SDS011;34178;50.904;11.560;2023-06-26T14:29:36;14.35;;;6.80;;
48375;SDS011;34178;50.904;11.560;2023-06-26T14:32:02;12.35;;;6.43;;
48375;SDS011;34178;50.904;11.560;2023-06-26T14:34:28;11.57;;;7.05;;
48375;SDS011;34178;50.904;11.560;2023-06-26T14:36:54;12.30;;;6.95;;
48375;SDS011;34178;50.904;11.560;2023-06-26T14:39:20;10.20;;;7.00;;
48375;SDS011;34178;50.904;11.560;2023-06-26T14:41:46;10.60;;;7.57;;
48375;SDS011;34178;50.904;11.560;2023-06-26T14:44:13;10.63;;;7.45;;
48375;SDS011;34178;50.904;11.560;2023-06-26T14:46:39;11.80;;;6.85;;
48375;SDS011;34178;50.904;11.560;2023-06-26T14:49:05;10.27;;;7.25;;
48375;SDS011;34178;50.904;11.560;2023-06-26T14:51:30;9.55;;;6.72;;
48375;SDS011;34178;50.904;11.560;2023-06-26T14:53:56;11.00;;;7.47;;
48375;SDS011;34178;50.904;11.560;2023-06-26T14:56:22;12.82;;;7.85;;
48375;SDS011;34178;50.904;11.560;2023-06-26T14:58:48;12.45;;;7.28;;
48375;SDS011;34178;50.904;11.560;2023-06-26T15:01:16;10.95;;;6.72;;
48375;SDS011;34178;50.904;11.560;2023-06-26T15:03:44;12.07;;;7.13;;
48375;SDS011;34178;50.904;11.560;2023-06-26T15:06:09;11.10;;;6.65;;
48375;SDS011;34178;50.904;11.560;2023-06-26T15:08:35;9.48;;;6.75;;
48375;SDS011;34178;50.904;11.560;2023-06-26T15:11:01;13.77;;;7.35;;
48375;SDS011;34178;50.904;11.560;2023-06-26T15:13:28;10.43;;;7.05;;
48375;SDS011;34178;50.904;11.560;2023-06-26T15:15:53;9.73;;;6.90;;
48375;SDS011;34178;50.904;11.560;2023-06-26T15:18:19;11.20;;;6.63;;
48375;SDS011;34178;50.904;11.560;2023-06-26T17:02:29;11.20;;;7.72;;
48375;SDS011;34178;50.904;11.560;2023-06-26T17:04:56;15.02;;;7.97;;
48375;SDS011;34178;50.904;11.560;2023-06-26T17:07:22;13.40;;;8.00;;
48375;SDS011;34178;50.904;11.560;2023-06-26T23:53:32;4.43;;;1.85;;
